sensor_id;sensor_type;location;lat;lon;timestamp;temperature;humidity
36800;DHT22;22752;51.960;5.886;2023-06-22T00:00:29;19.90;99.90
36800;DHT22;22752;51.960;5.886;2023-06-22T00:02:55;19.90;99.90
36800;DHT22;22752;51.960;5.886;2023-06-22T00:05:21;19.80;99.90
36800;DHT22;22752;51.960;5.886;2023-06-22T00:07:46;19.80;99.90
36800;DHT22;22752;51.960;5.886;2023-06-22T00:10:12;19.80;99.90
36800;DHT22;22752;51.960;5.886;2023-06-22T00:12:38;19.80;99.90
36800;DHT22;22752;51.960;5.886;2023-06-22T00:15:04;19.80;99.90
36800;DHT22;22752;51.960;5.886;2023-06-22T00:17:29;19.80;99.90
36800;DHT22;22752;51.960;5.886;2023-06-22T00:19:55;19.80;99.90
36800;DHT22;22752;51.960;5.886;2023-06-22T00:22:24;19.80;99.90
36800;DHT22;22752;51.960;5.886;2023-06-22T00:24:55;19.80;99.90
36800;DHT22;22752;51.960;5.886;2023-06-22T00:27:21;19.80;99.90
36800;DHT22;22752;51.960;5.886;2023-06-22T00:29:46;19.70;99.90
36800;DHT22;22752;51.960;5.886;2023-06-22T00:32:12;19.70;99.90
36800;DHT22;22752;51.960;5.886;2023-06-22T00:34:37;19.70;99.90
36800;DHT22;22752;51.960;5.886;2023-06-22T00:37:03;19.60;99.90
36800;DHT22;22752;51.960;5.886;2023-06-22T00:39:29;19.60;99.90
36800;DHT22;22752;51.960;5.886;2023-06-22T00:41:55;19.60;99.90
36800;DHT22;22752;51.960;5.886;2023-06-22T00:44:20;19.50;99.90
36800;DHT22;22752;51.960;5.886;2023-06-22T00:46:46;19.50;99.90
36800;DHT22;22752;51.960;5.886;2023-06-22T00:49:12;19.40;99.90
36800;DHT22;22752;51.960;5.886;2023-06-22T00:51:38;19.30;99.90
36800;DHT22;22752;51.960;5.886;2023-06-22T00:54:05;19.30;99.90
36800;DHT22;22752;51.960;5.886;2023-06-22T00:56:31;19.30;99.90
36800;DHT22;22752;51.960;5.886;2023-06-22T00:58:58;19.30;99.90
36800;DHT22;22752;51.960;5.886;2023-06-22T01:01:25;19.30;99.90
36800;DHT22;22752;51.960;5.886;2023-06-22T01:03:51;19.30;99.90
36800;DHT22;22752;51.960;5.886;2023-06-22T01:06:21;19.20;99.90
36800;DHT22;22752;51.960;5.886;2023-06-22T01:09:00;19.20;99.90
36800;DHT22;22752;51.960;5.886;2023-06-22T01:11:51;19.20;99.90
36800;DHT22;22752;51.960;5.886;2023-06-22T01:14:26;19.20;99.90
36800;DHT22;22752;51.960;5.886;2023-06-22T01:19:48;19.10;99.90
36800;DHT22;22752;51.960;5.886;2023-06-22T01:22:18;19.10;99.90
36800;DHT22;22752;51.960;5.886;2023-06-22T01:25:07;19.10;99.90
36800;DHT22;22752;51.960;5.886;2023-06-22T01:27:58;19.10;99.90
36800;DHT22;22752;51.960;5.886;2023-06-22T01:30:28;19.10;99.90
36800;DHT22;22752;51.960;5.886;2023-06-22T01:32:58;19.00;99.90
36800;DHT22;22752;51.960;5.886;2023-06-22T01:35:24;19.00;99.90
36800;DHT22;22752;51.960;5.886;2023-06-22T01:37:50;19.00;99.90
36800;DHT22;22752;51.960;5.886;2023-06-22T01:40:17;18.90;99.90
36800;DHT22;22752;51.960;5.886;2023-06-22T01:42:44;18.90;99.90
36800;DHT22;22752;51.960;5.886;2023-06-22T01:45:11;18.90;99.90
36800;DHT22;22752;51.960;5.886;2023-06-22T01:47:38;18.90;99.90
36800;DHT22;22752;51.960;5.886;2023-06-22T01:50:05;18.90;99.90
36800;DHT22;22752;51.960;5.886;2023-06-22T01:52:30;18.80;99.90
36800;DHT22;22752;51.960;5.886;2023-06-22T01:54:59;18.80;99.90
36800;DHT22;22752;51.960;5.886;2023-06-22T01:57:25;18.80;99.90
36800;DHT22;22752;51.960;5.886;2023-06-22T02:00:02;18.80;99.90
36800;DHT22;22752;51.960;5.886;2023-06-22T02:02:36;18.80;99.90
36800;DHT22;22752;51.960;5.886;2023-06-22T02:05:06;18.70;99.90
36800;DHT22;22752;51.960;5.886;2023-06-22T02:07:41;18.80;99.90
36800;DHT22;22752;51.960;5.886;2023-06-22T02:10:09;18.70;99.90
36800;DHT22;22752;51.960;5.886;2023-06-22T02:12:38;18.70;99.90
36800;DHT22;22752;51.960;5.886;2023-06-22T02:15:05;18.70;99.90
36800;DHT22;22752;51.960;5.886;2023-06-22T02:17:31;18.70;99.90
36800;DHT22;22752;51.960;5.886;2023-06-22T02:19:58;18.60;99.90
36800;DHT22;22752;51.960;5.886;2023-06-22T02:22:24;18.60;99.90
36800;DHT22;22752;51.960;5.886;2023-06-22T02:24:50;18.60;99.90
36800;DHT22;22752;51.960;5.886;2023-06-22T02:27:15;18.50;99.90
36800;DHT22;22752;51.960;5.886;2023-06-22T02:29:41;18.50;99.90
36800;DHT22;22752;51.960;5.886;2023-06-22T02:32:07;18.40;99.90
36800;DHT22;22752;51.960;5.886;2023-06-22T02:34:32;18.50;99.90
36800;DHT22;22752;51.960;5.886;2023-06-22T02:36:59;18.50;99.90
36800;DHT22;22752;51.960;5.886;2023-06-22T02:39:26;18.50;99.90
36800;DHT22;22752;51.960;5.886;2023-06-22T02:41:53;18.50;99.90
36800;DHT22;22752;51.960;5.886;2023-06-22T02:44:20;18.50;99.90
36800;DHT22;22752;51.960;5.886;2023-06-22T02:46:47;18.50;99.90
36800;DHT22;22752;51.960;5.886;2023-06-22T02:49:13;18.50;99.90
36800;DHT22;22752;51.960;5.886;2023-06-22T02:51:46;18.40;99.90
36800;DHT22;22752;51.960;5.886;2023-06-22T02:54:12;18.40;99.90
36800;DHT22;22752;51.960;5.886;2023-06-22T02:56:37;18.40;99.90
36800;DHT22;22752;51.960;5.886;2023-06-22T02:59:03;18.40;99.90
36800;DHT22;22752;51.960;5.886;2023-06-22T03:01:29;18.40;99.90
36800;DHT22;22752;51.960;5.886;2023-06-22T03:04:08;18.30;99.90
36800;DHT22;22752;51.960;5.886;2023-06-22T03:06:34;18.30;99.90
36800;DHT22;22752;51.960;5.886;2023-06-22T03:09:02;18.20;99.90
36800;DHT22;22752;51.960;5.886;2023-06-22T03:11:30;18.30;99.90
36800;DHT22;22752;51.960;5.886;2023-06-22T03:13:56;18.30;99.90
36800;DHT22;22752;51.960;5.886;2023-06-22T03:16:22;18.30;99.90
36800;DHT22;22752;51.960;5.886;2023-06-22T03:18:48;18.30;99.90
36800;DHT22;22752;51.960;5.886;2023-06-22T03:21:13;18.30;99.90
36800;DHT22;22752;51.960;5.886;2023-06-22T03:23:41;18.30;99.90
36800;DHT22;22752;51.960;5.886;2023-06-22T03:26:08;18.30;99.90
36800;DHT22;22752;51.960;5.886;2023-06-22T03:28:33;18.30;99.90
36800;DHT22;22752;51.960;5.886;2023-06-22T03:30:59;18.20;99.90
36800;DHT22;22752;51.960;5.886;2023-06-22T03:33:25;18.20;99.90
36800;DHT22;22752;51.960;5.886;2023-06-22T03:35:50;18.20;99.90
36800;DHT22;22752;51.960;5.886;2023-06-22T03:38:16;18.10;99.90
36800;DHT22;22752;51.960;5.886;2023-06-22T03:40:42;18.10;99.90
36800;DHT22;22752;51.960;5.886;2023-06-22T03:43:08;18.20;99.90
36800;DHT22;22752;51.960;5.886;2023-06-22T03:45:34;18.20;99.90
36800;DHT22;22752;51.960;5.886;2023-06-22T03:48:00;18.20;99.90
36800;DHT22;22752;51.960;5.886;2023-06-22T03:50:26;18.20;99.90
36800;DHT22;22752;51.960;5.886;2023-06-22T03:52:52;18.20;99.90
36800;DHT22;22752;51.960;5.886;2023-06-22T03:55:19;18.20;99.90
36800;DHT22;22752;51.960;5.886;2023-06-22T03:57:45;18.30;99.90
36800;DHT22;22752;51.960;5.886;2023-06-22T04:00:11;18.30;99.90
36800;DHT22;22752;51.960;5.886;2023-06-22T04:02:37;18.30;99.90
36800;DHT22;22752;51.960;5.886;2023-06-22T04:05:04;18.40;99.90
36800;DHT22;22752;51.960;5.886;2023-06-22T04:07:29;18.40;99.90
36800;DHT22;22752;51.960;5.886;2023-06-22T04:09:55;18.50;99.90
36800;DHT22;22752;51.960;5.886;2023-06-22T04:12:21;18.60;99.90
36800;DHT22;22752;51.960;5.886;2023-06-22T04:14:46;18.60;99.90
36800;DHT22;22752;51.960;5.886;2023-06-22T04:17:12;18.60;99.90
36800;DHT22;22752;51.960;5.886;2023-06-22T04:19:39;18.70;99.90
36800;DHT22;22752;51.960;5.886;2023-06-22T04:22:05;18.80;99.90
36800;DHT22;22752;51.960;5.886;2023-06-22T04:24:33;19.00;99.90
36800;DHT22;22752;51.960;5.886;2023-06-22T04:26:59;19.40;99.90
36800;DHT22;22752;51.960;5.886;2023-06-22T04:29:31;19.80;99.90
36800;DHT22;22752;51.960;5.886;2023-06-22T04:31:57;20.30;99.90
36800;DHT22;22752;51.960;5.886;2023-06-22T04:34:24;20.60;99.90
36800;DHT22;22752;51.960;5.886;2023-06-22T04:36:53;20.90;99.90
36800;DHT22;22752;51.960;5.886;2023-06-22T04:39:19;21.20;99.90
36800;DHT22;22752;51.960;5.886;2023-06-22T04:41:44;21.30;99.90
36800;DHT22;22752;51.960;5.886;2023-06-22T04:44:14;21.50;99.90
36800;DHT22;22752;51.960;5.886;2023-06-22T04:46:51;21.80;99.90
36800;DHT22;22752;51.960;5.886;2023-06-22T04:49:20;22.10;99.90
36800;DHT22;22752;51.960;5.886;2023-06-22T04:51:47;22.40;99.90
36800;DHT22;22752;51.960;5.886;2023-06-22T04:54:13;22.50;99.90
36800;DHT22;22752;51.960;5.886;2023-06-22T04:56:39;22.40;99.90
36800;DHT22;22752;51.960;5.886;2023-06-22T04:59:06;22.10;99.90
36800;DHT22;22752;51.960;5.886;2023-06-22T05:01:32;21.90;99.90
36800;DHT22;22752;51.960;5.886;2023-06-22T05:03:57;21.90;99.90
36800;DHT22;22752;51.960;5.886;2023-06-22T05:06:26;22.00;99.90
36800;DHT22;22752;51.960;5.886;2023-06-22T05:08:56;22.20;99.90
36800;DHT22;22752;51.960;5.886;2023-06-22T05:11:25;22.50;99.90
36800;DHT22;22752;51.960;5.886;2023-06-22T05:13:52;22.70;99.90
36800;DHT22;22752;51.960;5.886;2023-06-22T05:16:17;22.90;99.90
36800;DHT22;22752;51.960;5.886;2023-06-22T05:18:48;23.30;99.90
36800;DHT22;22752;51.960;5.886;2023-06-22T05:21:14;23.40;99.90
36800;DHT22;22752;51.960;5.886;2023-06-22T05:23:39;23.30;99.90
36800;DHT22;22752;51.960;5.886;2023-06-22T05:26:05;23.20;99.90
36800;DHT22;22752;51.960;5.886;2023-06-22T05:28:30;23.30;99.90
36800;DHT22;22752;51.960;5.886;2023-06-22T05:30:56;23.30;99.90
36800;DHT22;22752;51.960;5.886;2023-06-22T05:33:22;23.30;99.90
36800;DHT22;22752;51.960;5.886;2023-06-22T05:35:47;23.30;99.90
36800;DHT22;22752;51.960;5.886;2023-06-22T05:38:13;23.40;99.90
36800;DHT22;22752;51.960;5.886;2023-06-22T05:40:39;23.50;99.90
36800;DHT22;22752;51.960;5.886;2023-06-22T05:43:05;23.60;99.90
36800;DHT22;22752;51.960;5.886;2023-06-22T05:45:30;24.00;99.90
36800;DHT22;22752;51.960;5.886;2023-06-22T05:47:56;24.40;99.90
36800;DHT22;22752;51.960;5.886;2023-06-22T05:50:21;24.60;99.90
36800;DHT22;22752;51.960;5.886;2023-06-22T05:52:47;24.80;99.90
36800;DHT22;22752;51.960;5.886;2023-06-22T05:55:13;25.20;99.90
36800;DHT22;22752;51.960;5.886;2023-06-22T05:57:38;25.50;99.90
36800;DHT22;22752;51.960;5.886;2023-06-22T06:00:04;25.70;99.90
36800;DHT22;22752;51.960;5.886;2023-06-22T06:02:35;25.70;99.90
36800;DHT22;22752;51.960;5.886;2023-06-22T06:05:01;25.70;99.90
36800;DHT22;22752;51.960;5.886;2023-06-22T06:07:28;25.90;99.90
36800;DHT22;22752;51.960;5.886;2023-06-22T06:09:53;25.90;99.90
36800;DHT22;22752;51.960;5.886;2023-06-22T06:12:19;26.00;99.90
36800;DHT22;22752;51.960;5.886;2023-06-22T06:14:44;26.10;99.90
36800;DHT22;22752;51.960;5.886;2023-06-22T06:17:10;26.10;99.90
36800;DHT22;22752;51.960;5.886;2023-06-22T06:19:36;26.20;99.90
36800;DHT22;22752;51.960;5.886;2023-06-22T06:22:01;26.40;99.90
36800;DHT22;22752;51.960;5.886;2023-06-22T06:24:27;26.70;99.90
36800;DHT22;22752;51.960;5.886;2023-06-22T06:26:53;26.80;99.80
36800;DHT22;22752;51.960;5.886;2023-06-22T06:29:18;26.70;99.40
36800;DHT22;22752;51.960;5.886;2023-06-22T06:31:44;26.70;99.30
36800;DHT22;22752;51.960;5.886;2023-06-22T06:34:10;26.70;99.90
36800;DHT22;22752;51.960;5.886;2023-06-22T06:36:35;26.80;99.70
36800;DHT22;22752;51.960;5.886;2023-06-22T06:39:01;26.90;99.60
36800;DHT22;22752;51.960;5.886;2023-06-22T06:41:28;27.30;99.40
36800;DHT22;22752;51.960;5.886;2023-06-22T06:43:54;27.40;98.80
36800;DHT22;22752;51.960;5.886;2023-06-22T06:46:19;27.50;98.70
36800;DHT22;22752;51.960;5.886;2023-06-22T06:48:45;27.40;97.90
36800;DHT22;22752;51.960;5.886;2023-06-22T06:51:11;27.10;98.40
36800;DHT22;22752;51.960;5.886;2023-06-22T06:53:37;26.80;98.60
36800;DHT22;22752;51.960;5.886;2023-06-22T06:56:03;26.70;98.80
36800;DHT22;22752;51.960;5.886;2023-06-22T06:58:31;26.70;99.10
36800;DHT22;22752;51.960;5.886;2023-06-22T07:00:56;26.80;99.00
36800;DHT22;22752;51.960;5.886;2023-06-22T07:03:22;27.00;98.90
36800;DHT22;22752;51.960;5.886;2023-06-22T07:05:48;27.10;98.70
36800;DHT22;22752;51.960;5.886;2023-06-22T07:08:13;26.80;99.30
36800;DHT22;22752;51.960;5.886;2023-06-22T07:10:39;26.50;99.20
36800;DHT22;22752;51.960;5.886;2023-06-22T07:13:04;26.30;99.50
36800;DHT22;22752;51.960;5.886;2023-06-22T07:15:30;26.10;99.70
36800;DHT22;22752;51.960;5.886;2023-06-22T07:17:56;25.90;99.70
36800;DHT22;22752;51.960;5.886;2023-06-22T07:20:21;25.80;99.80
36800;DHT22;22752;51.960;5.886;2023-06-22T07:22:47;25.60;99.90
36800;DHT22;22752;51.960;5.886;2023-06-22T07:25:13;25.80;99.90
36800;DHT22;22752;51.960;5.886;2023-06-22T07:28:00;26.10;99.90
36800;DHT22;22752;51.960;5.886;2023-06-22T07:30:27;26.40;99.90
36800;DHT22;22752;51.960;5.886;2023-06-22T07:32:53;26.50;99.10
36800;DHT22;22752;51.960;5.886;2023-06-22T07:35:18;26.50;99.00
36800;DHT22;22752;51.960;5.886;2023-06-22T07:37:44;26.30;99.30
36800;DHT22;22752;51.960;5.886;2023-06-22T07:40:10;26.40;99.70
36800;DHT22;22752;51.960;5.886;2023-06-22T07:42:36;26.50;99.80
36800;DHT22;22752;51.960;5.886;2023-06-22T07:45:03;26.50;99.30
36800;DHT22;22752;51.960;5.886;2023-06-22T07:47:29;26.30;99.20
36800;DHT22;22752;51.960;5.886;2023-06-22T07:49:59;26.10;99.30
36800;DHT22;22752;51.960;5.886;2023-06-22T07:52:29;26.00;99.30
36800;DHT22;22752;51.960;5.886;2023-06-22T07:54:55;25.90;99.30
36800;DHT22;22752;51.960;5.886;2023-06-22T07:57:21;25.80;99.70
36800;DHT22;22752;51.960;5.886;2023-06-22T07:59:46;25.80;99.40
36800;DHT22;22752;51.960;5.886;2023-06-22T08:02:12;25.70;99.70
36800;DHT22;22752;51.960;5.886;2023-06-22T08:04:38;25.60;99.80
36800;DHT22;22752;51.960;5.886;2023-06-22T08:07:05;25.60;99.80
36800;DHT22;22752;51.960;5.886;2023-06-22T08:09:31;25.40;99.90
36800;DHT22;22752;51.960;5.886;2023-06-22T08:11:58;25.40;99.90
36800;DHT22;22752;51.960;5.886;2023-06-22T08:14:25;25.30;99.90
36800;DHT22;22752;51.960;5.886;2023-06-22T08:16:51;25.30;99.90
36800;DHT22;22752;51.960;5.886;2023-06-22T08:19:17;25.30;99.60
36800;DHT22;22752;51.960;5.886;2023-06-22T08:21:43;25.30;99.50
36800;DHT22;22752;51.960;5.886;2023-06-22T08:24:09;25.20;99.60
36800;DHT22;22752;51.960;5.886;2023-06-22T08:26:35;25.10;99.50
36800;DHT22;22752;51.960;5.886;2023-06-22T08:29:03;25.10;99.30
36800;DHT22;22752;51.960;5.886;2023-06-22T08:31:29;25.00;99.60
36800;DHT22;22752;51.960;5.886;2023-06-22T08:33:55;25.00;99.80
36800;DHT22;22752;51.960;5.886;2023-06-22T08:36:21;25.10;99.80
36800;DHT22;22752;51.960;5.886;2023-06-22T08:38:47;25.30;99.90
36800;DHT22;22752;51.960;5.886;2023-06-22T08:41:17;25.90;99.80
36800;DHT22;22752;51.960;5.886;2023-06-22T08:43:43;26.40;99.00
36800;DHT22;22752;51.960;5.886;2023-06-22T08:46:10;26.80;98.80
36800;DHT22;22752;51.960;5.886;2023-06-22T08:48:36;27.00;97.90
36800;DHT22;22752;51.960;5.886;2023-06-22T08:51:02;26.90;97.60
36800;DHT22;22752;51.960;5.886;2023-06-22T08:53:28;26.70;97.60
36800;DHT22;22752;51.960;5.886;2023-06-22T08:55:54;26.60;98.10
36800;DHT22;22752;51.960;5.886;2023-06-22T08:58:20;26.50;98.30
36800;DHT22;22752;51.960;5.886;2023-06-22T09:00:47;26.40;98.20
36800;DHT22;22752;51.960;5.886;2023-06-22T09:03:13;26.40;97.70
36800;DHT22;22752;51.960;5.886;2023-06-22T09:05:38;26.30;97.70
36800;DHT22;22752;51.960;5.886;2023-06-22T09:08:04;26.30;97.80
36800;DHT22;22752;51.960;5.886;2023-06-22T09:10:30;26.30;97.80
36800;DHT22;22752;51.960;5.886;2023-06-22T09:12:57;26.40;97.30
36800;DHT22;22752;51.960;5.886;2023-06-22T09:15:23;26.60;98.10
36800;DHT22;22752;51.960;5.886;2023-06-22T09:17:48;26.90;97.80
36800;DHT22;22752;51.960;5.886;2023-06-22T09:20:14;27.10;97.60
36800;DHT22;22752;51.960;5.886;2023-06-22T09:22:41;27.10;97.20
36800;DHT22;22752;51.960;5.886;2023-06-22T09:25:07;27.00;97.10
36800;DHT22;22752;51.960;5.886;2023-06-22T09:27:33;27.00;96.90
36800;DHT22;22752;51.960;5.886;2023-06-22T09:29:58;26.80;96.50
36800;DHT22;22752;51.960;5.886;2023-06-22T09:32:25;26.70;97.00
36800;DHT22;22752;51.960;5.886;2023-06-22T09:34:51;26.70;97.20
36800;DHT22;22752;51.960;5.886;2023-06-22T09:37:17;26.70;96.30
36800;DHT22;22752;51.960;5.886;2023-06-22T09:39:42;26.60;96.70
36800;DHT22;22752;51.960;5.886;2023-06-22T09:42:08;26.50;97.00
36800;DHT22;22752;51.960;5.886;2023-06-22T09:44:34;26.40;96.50
36800;DHT22;22752;51.960;5.886;2023-06-22T09:47:00;26.30;96.60
36800;DHT22;22752;51.960;5.886;2023-06-22T09:49:25;26.30;96.50
36800;DHT22;22752;51.960;5.886;2023-06-22T09:51:52;26.20;96.10
36800;DHT22;22752;51.960;5.886;2023-06-22T09:54:17;26.10;95.60
36800;DHT22;22752;51.960;5.886;2023-06-22T09:56:43;26.00;95.30
36800;DHT22;22752;51.960;5.886;2023-06-22T09:59:09;25.90;95.80
36800;DHT22;22752;51.960;5.886;2023-06-22T10:01:34;25.80;96.10
36800;DHT22;22752;51.960;5.886;2023-06-22T10:04:01;25.70;96.20
36800;DHT22;22752;51.960;5.886;2023-06-22T10:06:27;25.60;96.40
36800;DHT22;22752;51.960;5.886;2023-06-22T10:08:52;25.60;96.40
36800;DHT22;22752;51.960;5.886;2023-06-22T10:11:18;25.50;96.10
36800;DHT22;22752;51.960;5.886;2023-06-22T10:13:44;25.40;96.30
36800;DHT22;22752;51.960;5.886;2023-06-22T10:16:09;25.30;95.70
36800;DHT22;22752;51.960;5.886;2023-06-22T10:18:35;25.20;96.00
36800;DHT22;22752;51.960;5.886;2023-06-22T10:21:01;25.20;96.20
36800;DHT22;22752;51.960;5.886;2023-06-22T10:23:26;25.20;96.60
36800;DHT22;22752;51.960;5.886;2023-06-22T10:25:52;25.20;96.80
36800;DHT22;22752;51.960;5.886;2023-06-22T10:28:18;25.20;96.80
36800;DHT22;22752;51.960;5.886;2023-06-22T10:30:43;25.30;97.10
36800;DHT22;22752;51.960;5.886;2023-06-22T10:33:10;25.30;96.80
36800;DHT22;22752;51.960;5.886;2023-06-22T10:35:36;25.30;96.70
36800;DHT22;22752;51.960;5.886;2023-06-22T10:38:03;25.40;96.80
36800;DHT22;22752;51.960;5.886;2023-06-22T10:40:29;25.40;96.80
36800;DHT22;22752;51.960;5.886;2023-06-22T10:42:55;25.50;97.00
36800;DHT22;22752;51.960;5.886;2023-06-22T10:45:20;25.50;96.50
36800;DHT22;22752;51.960;5.886;2023-06-22T10:47:46;25.50;96.30
36800;DHT22;22752;51.960;5.886;2023-06-22T10:50:12;25.50;96.60
36800;DHT22;22752;51.960;5.886;2023-06-22T10:52:38;25.50;96.70
36800;DHT22;22752;51.960;5.886;2023-06-22T10:55:05;25.50;96.60
36800;DHT22;22752;51.960;5.886;2023-06-22T10:57:30;25.50;97.20
36800;DHT22;22752;51.960;5.886;2023-06-22T10:59:56;25.40;97.40
36800;DHT22;22752;51.960;5.886;2023-06-22T11:02:21;25.40;97.30
36800;DHT22;22752;51.960;5.886;2023-06-22T11:04:47;25.40;97.40
36800;DHT22;22752;51.960;5.886;2023-06-22T11:07:13;25.40;96.90
36800;DHT22;22752;51.960;5.886;2023-06-22T11:09:39;25.30;97.20
36800;DHT22;22752;51.960;5.886;2023-06-22T11:12:05;25.30;96.80
36800;DHT22;22752;51.960;5.886;2023-06-22T11:14:31;25.30;96.80
36800;DHT22;22752;51.960;5.886;2023-06-22T11:16:59;25.20;97.10
36800;DHT22;22752;51.960;5.886;2023-06-22T11:19:24;25.20;96.90
36800;DHT22;22752;51.960;5.886;2023-06-22T11:21:50;25.20;97.20
36800;DHT22;22752;51.960;5.886;2023-06-22T11:24:16;25.20;97.60
36800;DHT22;22752;51.960;5.886;2023-06-22T11:26:42;25.00;97.80
36800;DHT22;22752;51.960;5.886;2023-06-22T11:29:08;24.70;99.20
36800;DHT22;22752;51.960;5.886;2023-06-22T11:31:34;24.40;99.80
36800;DHT22;22752;51.960;5.886;2023-06-22T11:34:00;24.00;99.90
36800;DHT22;22752;51.960;5.886;2023-06-22T11:36:26;23.70;99.90
36800;DHT22;22752;51.960;5.886;2023-06-22T11:38:52;23.30;99.90
36800;DHT22;22752;51.960;5.886;2023-06-22T11:41:17;23.10;99.90
36800;DHT22;22752;51.960;5.886;2023-06-22T11:43:43;22.90;99.90
36800;DHT22;22752;51.960;5.886;2023-06-22T11:46:09;22.80;99.90
36800;DHT22;22752;51.960;5.886;2023-06-22T11:48:35;22.70;99.90
36800;DHT22;22752;51.960;5.886;2023-06-22T11:51:02;22.60;99.90
36800;DHT22;22752;51.960;5.886;2023-06-22T11:53:28;22.50;99.90
36800;DHT22;22752;51.960;5.886;2023-06-22T11:55:54;22.40;99.90
36800;DHT22;22752;51.960;5.886;2023-06-22T11:58:20;22.20;99.90
36800;DHT22;22752;51.960;5.886;2023-06-22T12:00:46;21.90;99.90
36800;DHT22;22752;51.960;5.886;2023-06-22T12:03:11;21.70;99.90
36800;DHT22;22752;51.960;5.886;2023-06-22T12:05:38;21.40;99.90
36800;DHT22;22752;51.960;5.886;2023-06-22T12:08:04;21.30;99.90
36800;DHT22;22752;51.960;5.886;2023-06-22T12:10:30;21.20;99.90
36800;DHT22;22752;51.960;5.886;2023-06-22T12:12:55;21.10;99.90
36800;DHT22;22752;51.960;5.886;2023-06-22T12:15:23;21.00;99.90
36800;DHT22;22752;51.960;5.886;2023-06-22T12:17:48;20.90;99.90
36800;DHT22;22752;51.960;5.886;2023-06-22T12:20:14;20.80;99.90
36800;DHT22;22752;51.960;5.886;2023-06-22T12:22:40;20.70;99.90
36800;DHT22;22752;51.960;5.886;2023-06-22T12:25:07;20.60;99.90
36800;DHT22;22752;51.960;5.886;2023-06-22T12:27:34;20.50;99.90
36800;DHT22;22752;51.960;5.886;2023-06-22T12:29:59;20.40;99.90
36800;DHT22;22752;51.960;5.886;2023-06-22T12:32:25;20.30;99.90
36800;DHT22;22752;51.960;5.886;2023-06-22T12:34:51;20.30;99.90
36800;DHT22;22752;51.960;5.886;2023-06-22T12:37:17;20.30;99.90
36800;DHT22;22752;51.960;5.886;2023-06-22T12:39:43;20.40;99.90
36800;DHT22;22752;51.960;5.886;2023-06-22T12:42:09;20.40;99.90
36800;DHT22;22752;51.960;5.886;2023-06-22T12:44:38;20.40;99.90
36800;DHT22;22752;51.960;5.886;2023-06-22T12:47:04;20.40;99.90
36800;DHT22;22752;51.960;5.886;2023-06-22T12:49:30;20.50;99.90
36800;DHT22;22752;51.960;5.886;2023-06-22T12:51:55;20.50;99.90
36800;DHT22;22752;51.960;5.886;2023-06-22T12:54:21;20.50;99.90
36800;DHT22;22752;51.960;5.886;2023-06-22T12:56:46;20.40;99.90
36800;DHT22;22752;51.960;5.886;2023-06-22T12:59:12;20.40;99.90
36800;DHT22;22752;51.960;5.886;2023-06-22T13:01:38;20.40;99.90
36800;DHT22;22752;51.960;5.886;2023-06-22T13:04:03;20.40;99.90
36800;DHT22;22752;51.960;5.886;2023-06-22T13:06:29;20.30;99.90
36800;DHT22;22752;51.960;5.886;2023-06-22T13:08:55;20.20;99.90
36800;DHT22;22752;51.960;5.886;2023-06-22T13:11:20;20.10;99.90
36800;DHT22;22752;51.960;5.886;2023-06-22T13:13:46;20.00;99.90
36800;DHT22;22752;51.960;5.886;2023-06-22T13:16:12;19.80;99.90
36800;DHT22;22752;51.960;5.886;2023-06-22T13:18:38;19.80;99.90
36800;DHT22;22752;51.960;5.886;2023-06-22T13:21:05;19.70;99.90
36800;DHT22;22752;51.960;5.886;2023-06-22T13:23:30;19.70;99.90
36800;DHT22;22752;51.960;5.886;2023-06-22T13:25:57;19.60;99.90
36800;DHT22;22752;51.960;5.886;2023-06-22T13:28:23;19.70;99.90
36800;DHT22;22752;51.960;5.886;2023-06-22T13:30:49;19.60;99.90
36800;DHT22;22752;51.960;5.886;2023-06-22T13:33:14;19.60;99.90
36800;DHT22;22752;51.960;5.886;2023-06-22T13:35:40;19.60;99.90
36800;DHT22;22752;51.960;5.886;2023-06-22T13:38:11;19.50;99.90
36800;DHT22;22752;51.960;5.886;2023-06-22T13:40:37;19.40;99.90
36800;DHT22;22752;51.960;5.886;2023-06-22T13:43:06;19.40;99.90
36800;DHT22;22752;51.960;5.886;2023-06-22T13:45:32;19.40;99.90
36800;DHT22;22752;51.960;5.886;2023-06-22T13:47:58;19.40;99.90
36800;DHT22;22752;51.960;5.886;2023-06-22T13:50:24;19.40;99.90
36800;DHT22;22752;51.960;5.886;2023-06-22T13:52:49;19.30;99.90
36800;DHT22;22752;51.960;5.886;2023-06-22T13:55:15;19.40;99.90
36800;DHT22;22752;51.960;5.886;2023-06-22T13:57:41;19.40;99.90
36800;DHT22;22752;51.960;5.886;2023-06-22T14:00:08;19.40;99.90
36800;DHT22;22752;51.960;5.886;2023-06-22T14:02:34;19.40;99.90
36800;DHT22;22752;51.960;5.886;2023-06-22T14:05:00;19.40;99.90
36800;DHT22;22752;51.960;5.886;2023-06-22T14:07:25;19.50;99.90
36800;DHT22;22752;51.960;5.886;2023-06-22T14:09:51;19.50;99.90
36800;DHT22;22752;51.960;5.886;2023-06-22T14:12:17;19.50;99.90
36800;DHT22;22752;51.960;5.886;2023-06-22T14:14:45;19.50;99.90
36800;DHT22;22752;51.960;5.886;2023-06-22T14:17:11;19.50;99.90
36800;DHT22;22752;51.960;5.886;2023-06-22T14:19:36;19.50;99.90
36800;DHT22;22752;51.960;5.886;2023-06-22T14:22:02;19.60;99.90
36800;DHT22;22752;51.960;5.886;2023-06-22T14:24:28;19.50;99.90
36800;DHT22;22752;51.960;5.886;2023-06-22T14:26:55;19.50;99.90
36800;DHT22;22752;51.960;5.886;2023-06-22T14:29:21;19.50;99.90
36800;DHT22;22752;51.960;5.886;2023-06-22T14:31:48;19.50;99.90
36800;DHT22;22752;51.960;5.886;2023-06-22T14:34:14;19.50;99.90
36800;DHT22;22752;51.960;5.886;2023-06-22T14:36:40;19.50;99.90
36800;DHT22;22752;51.960;5.886;2023-06-22T14:39:06;19.50;99.90
36800;DHT22;22752;51.960;5.886;2023-06-22T14:41:32;19.50;99.90
36800;DHT22;22752;51.960;5.886;2023-06-22T14:43:57;19.50;99.90
36800;DHT22;22752;51.960;5.886;2023-06-22T14:46:23;19.50;99.90
36800;DHT22;22752;51.960;5.886;2023-06-22T14:48:48;19.40;99.90
36800;DHT22;22752;51.960;5.886;2023-06-22T14:51:14;19.40;99.90
36800;DHT22;22752;51.960;5.886;2023-06-22T14:53:41;19.40;99.90
36800;DHT22;22752;51.960;5.886;2023-06-22T14:56:07;19.40;99.90
36800;DHT22;22752;51.960;5.886;2023-06-22T14:58:33;19.40;99.90
36800;DHT22;22752;51.960;5.886;2023-06-22T15:01:00;19.30;99.90
36800;DHT22;22752;51.960;5.886;2023-06-22T15:03:26;19.30;99.90
36800;DHT22;22752;51.960;5.886;2023-06-22T15:05:54;19.20;99.90
36800;DHT22;22752;51.960;5.886;2023-06-22T15:08:20;19.00;99.90
36800;DHT22;22752;51.960;5.886;2023-06-22T15:10:46;18.90;99.90
36800;DHT22;22752;51.960;5.886;2023-06-22T15:13:12;18.80;99.90
36800;DHT22;22752;51.960;5.886;2023-06-22T15:15:37;18.70;99.90
36800;DHT22;22752;51.960;5.886;2023-06-22T15:18:03;18.70;99.90
36800;DHT22;22752;51.960;5.886;2023-06-22T15:20:29;18.60;99.90
36800;DHT22;22752;51.960;5.886;2023-06-22T15:22:54;18.60;99.90
36800;DHT22;22752;51.960;5.886;2023-06-22T15:25:20;18.60;99.90
36800;DHT22;22752;51.960;5.886;2023-06-22T15:27:46;18.60;99.90